sensor_id;sensor_type;location;lat;lon;timestamp;P1;durP1;ratioP1;P2;durP2;ratioP2
13255;SDS011;37913;48.370;10.930;2023-03-01T00:01:07;85.27;;;39.00;;
13255;SDS011;37913;48.370;10.930;2023-03-01T00:03:36;81.90;;;40.00;;
13255;SDS011;37913;48.370;10.930;2023-03-01T00:06:04;75.00;;;36.07;;
13255;SDS011;37913;48.370;10.930;2023-03-01T00:08:32;80.07;;;37.63;;
13255;SDS011;37913;48.370;10.930;2023-03-01T00:11:00;88.90;;;38.07;;
13255;SDS011;37913;48.370;10.930;2023-03-01T00:13:28;77.10;;;37.40;;
13255;SDS011;37913;48.370;10.930;2023-03-01T00:15:55;80.97;;;38.37;;
13255;SDS011;37913;48.370;10.930;2023-03-01T00:18:23;84.17;;;36.20;;
13255;SDS011;37913;48.370;10.930;2023-03-01T00:20:50;78.17;;;35.57;;
13255;SDS011;37913;48.370;10.930;2023-03-01T00:23:18;79.47;;;37.53;;
13255;SDS011;37913;48.370;10.930;2023-03-01T00:25:46;95.23;;;69.97;;
13255;SDS011;37913;48.370;10.930;2023-03-01T00:28:13;80.63;;;36.77;;
13255;SDS011;37913;48.370;10.930;2023-03-01T00:30:40;85.30;;;37.03;;
13255;SDS011;37913;48.370;10.930;2023-03-01T00:33:07;76.90;;;34.63;;
13255;SDS011;37913;48.370;10.930;2023-03-01T00:35:35;81.17;;;36.40;;
13255;SDS011;37913;48.370;10.930;2023-03-01T00:38:02;78.30;;;34.67;;
13255;SDS011;37913;48.370;10.930;2023-03-01T00:40:32;85.47;;;36.43;;
13255;SDS011;37913;48.370;10.930;2023-03-01T00:43:00;89.17;;;37.77;;
13255;SDS011;37913;48.370;10.930;2023-03-01T00:45:27;85.40;;;36.43;;
13255;SDS011;37913;48.370;10.930;2023-03-01T00:47:56;74.87;;;34.80;;
13255;SDS011;37913;48.370;10.930;2023-03-01T00:50:23;84.83;;;36.57;;
13255;SDS011;37913;48.370;10.930;2023-03-01T00:52:51;74.93;;;35.57;;
13255;SDS011;37913;48.370;10.930;2023-03-01T00:55:19;87.23;;;36.87;;
13255;SDS011;37913;48.370;10.930;2023-03-01T00:57:48;92.43;;;38.03;;
13255;SDS011;37913;48.370;10.930;2023-03-01T01:00:15;82.30;;;36.13;;
13255;SDS011;37913;48.370;10.930;2023-03-01T01:02:43;83.60;;;36.63;;
13255;SDS011;37913;48.370;10.930;2023-03-01T01:05:10;85.27;;;37.03;;
13255;SDS011;37913;48.370;10.930;2023-03-01T01:07:37;83.67;;;36.80;;
13255;SDS011;37913;48.370;10.930;2023-03-01T01:10:05;72.97;;;34.20;;
13255;SDS011;37913;48.370;10.930;2023-03-01T01:12:33;83.13;;;36.53;;
13255;SDS011;37913;48.370;10.930;2023-03-01T01:15:01;101.77;;;39.20;;
13255;SDS011;37913;48.370;10.930;2023-03-01T01:17:28;79.37;;;35.97;;
13255;SDS011;37913;48.370;10.930;2023-03-01T01:19:55;86.87;;;36.37;;
13255;SDS011;37913;48.370;10.930;2023-03-01T01:22:22;81.53;;;36.83;;
13255;SDS011;37913;48.370;10.930;2023-03-01T01:24:49;111.20;;;41.77;;
13255;SDS011;37913;48.370;10.930;2023-03-01T01:27:16;83.73;;;36.13;;
13255;SDS011;37913;48.370;10.930;2023-03-01T01:29:43;80.73;;;35.27;;
13255;SDS011;37913;48.370;10.930;2023-03-01T01:32:11;87.60;;;37.40;;
13255;SDS011;37913;48.370;10.930;2023-03-01T01:34:38;91.63;;;37.33;;
13255;SDS011;37913;48.370;10.930;2023-03-01T01:37:05;82.00;;;36.33;;
13255;SDS011;37913;48.370;10.930;2023-03-01T01:39:33;82.47;;;36.60;;
13255;SDS011;37913;48.370;10.930;2023-03-01T01:42:00;90.83;;;37.60;;
13255;SDS011;37913;48.370;10.930;2023-03-01T01:44:27;83.80;;;35.93;;
13255;SDS011;37913;48.370;10.930;2023-03-01T01:46:55;92.13;;;38.87;;
13255;SDS011;37913;48.370;10.930;2023-03-01T01:49:28;83.90;;;36.50;;
13255;SDS011;37913;48.370;10.930;2023-03-01T01:52:06;87.67;;;37.10;;
13255;SDS011;37913;48.370;10.930;2023-03-01T01:54:38;85.60;;;36.87;;
13255;SDS011;37913;48.370;10.930;2023-03-01T01:57:09;78.63;;;34.90;;
13255;SDS011;37913;48.370;10.930;2023-03-01T01:59:40;94.63;;;38.97;;
13255;SDS011;37913;48.370;10.930;2023-03-01T02:02:11;91.77;;;37.73;;
13255;SDS011;37913;48.370;10.930;2023-03-01T02:04:41;87.20;;;37.03;;
13255;SDS011;37913;48.370;10.930;2023-03-01T02:07:10;74.37;;;35.57;;
13255;SDS011;37913;48.370;10.930;2023-03-01T02:09:41;87.27;;;36.73;;
13255;SDS011;37913;48.370;10.930;2023-03-01T02:12:10;82.23;;;36.47;;
13255;SDS011;37913;48.370;10.930;2023-03-01T02:14:37;87.90;;;37.13;;
13255;SDS011;37913;48.370;10.930;2023-03-01T02:17:04;82.57;;;36.13;;
13255;SDS011;37913;48.370;10.930;2023-03-01T02:19:34;75.83;;;34.40;;
13255;SDS011;37913;48.370;10.930;2023-03-01T02:22:14;89.23;;;37.63;;
13255;SDS011;37913;48.370;10.930;2023-03-01T02:24:48;103.90;;;39.00;;
13255;SDS011;37913;48.370;10.930;2023-03-01T02:27:26;85.40;;;36.87;;
13255;SDS011;37913;48.370;10.930;2023-03-01T02:30:00;87.37;;;37.07;;
13255;SDS011;37913;48.370;10.930;2023-03-01T02:32:28;96.50;;;37.87;;
13255;SDS011;37913;48.370;10.930;2023-03-01T02:34:54;102.37;;;39.70;;
13255;SDS011;37913;48.370;10.930;2023-03-01T02:37:22;83.10;;;36.07;;
13255;SDS011;37913;48.370;10.930;2023-03-01T02:39:53;84.40;;;35.83;;
13255;SDS011;37913;48.370;10.930;2023-03-01T02:42:26;88.53;;;37.10;;
13255;SDS011;37913;48.370;10.930;2023-03-01T02:44:56;99.87;;;39.27;;
13255;SDS011;37913;48.370;10.930;2023-03-01T02:47:25;79.20;;;35.83;;
13255;SDS011;37913;48.370;10.930;2023-03-01T02:49:52;86.10;;;36.83;;
13255;SDS011;37913;48.370;10.930;2023-03-01T02:52:24;88.43;;;37.03;;
13255;SDS011;37913;48.370;10.930;2023-03-01T02:55:01;113.60;;;40.63;;
13255;SDS011;37913;48.370;10.930;2023-03-01T02:57:36;86.60;;;36.67;;
13255;SDS011;37913;48.370;10.930;2023-03-01T03:00:07;89.30;;;37.43;;
13255;SDS011;37913;48.370;10.930;2023-03-01T03:02:37;85.87;;;37.43;;
13255;SDS011;37913;48.370;10.930;2023-03-01T03:05:05;79.77;;;35.57;;
13255;SDS011;37913;48.370;10.930;2023-03-01T03:07:35;84.40;;;35.47;;
13255;SDS011;37913;48.370;10.930;2023-03-01T03:10:04;86.40;;;36.67;;
13255;SDS011;37913;48.370;10.930;2023-03-01T03:12:33;82.47;;;36.27;;
13255;SDS011;37913;48.370;10.930;2023-03-01T03:15:00;108.73;;;40.37;;
13255;SDS011;37913;48.370;10.930;2023-03-01T03:17:33;81.90;;;35.50;;
13255;SDS011;37913;48.370;10.930;2023-03-01T03:20:02;101.27;;;39.50;;
13255;SDS011;37913;48.370;10.930;2023-03-01T03:22:30;87.43;;;36.60;;
13255;SDS011;37913;48.370;10.930;2023-03-01T03:24:59;109.90;;;42.03;;
13255;SDS011;37913;48.370;10.930;2023-03-01T03:27:26;77.97;;;35.60;;
13255;SDS011;37913;48.370;10.930;2023-03-01T03:29:54;86.17;;;36.97;;
13255;SDS011;37913;48.370;10.930;2023-03-01T03:32:21;93.77;;;38.90;;
13255;SDS011;37913;48.370;10.930;2023-03-01T03:34:47;114.43;;;42.30;;
13255;SDS011;37913;48.370;10.930;2023-03-01T03:37:16;88.33;;;36.93;;
13255;SDS011;37913;48.370;10.930;2023-03-01T03:39:57;88.23;;;37.13;;
13255;SDS011;37913;48.370;10.930;2023-03-01T03:42:25;89.70;;;37.43;;
13255;SDS011;37913;48.370;10.930;2023-03-01T03:44:52;128.90;;;43.70;;
13255;SDS011;37913;48.370;10.930;2023-03-01T03:47:19;81.87;;;35.37;;
13255;SDS011;37913;48.370;10.930;2023-03-01T03:49:46;79.90;;;34.93;;
13255;SDS011;37913;48.370;10.930;2023-03-01T03:52:13;87.53;;;36.77;;
13255;SDS011;37913;48.370;10.930;2023-03-01T03:54:41;94.10;;;38.10;;
13255;SDS011;37913;48.370;10.930;2023-03-01T03:57:08;87.97;;;37.30;;
13255;SDS011;37913;48.370;10.930;2023-03-01T03:59:36;88.40;;;37.60;;
13255;SDS011;37913;48.370;10.930;2023-03-01T04:02:03;77.23;;;34.47;;
13255;SDS011;37913;48.370;10.930;2023-03-01T04:04:30;85.30;;;36.20;;
13255;SDS011;37913;48.370;10.930;2023-03-01T04:06:57;90.50;;;38.10;;
13255;SDS011;37913;48.370;10.930;2023-03-01T04:09:24;79.03;;;35.67;;
13255;SDS011;37913;48.370;10.930;2023-03-01T04:11:52;75.23;;;34.50;;
13255;SDS011;37913;48.370;10.930;2023-03-01T04:14:19;89.20;;;38.87;;
13255;SDS011;37913;48.370;10.930;2023-03-01T04:16:46;75.20;;;33.77;;
13255;SDS011;37913;48.370;10.930;2023-03-01T04:19:13;86.77;;;36.60;;
13255;SDS011;37913;48.370;10.930;2023-03-01T04:21:40;86.20;;;37.27;;
13255;SDS011;37913;48.370;10.930;2023-03-01T04:24:07;94.00;;;39.67;;
13255;SDS011;37913;48.370;10.930;2023-03-01T04:26:34;94.53;;;38.17;;
13255;SDS011;37913;48.370;10.930;2023-03-01T04:29:02;93.13;;;37.07;;
13255;SDS011;37913;48.370;10.930;2023-03-01T04:31:29;81.33;;;36.23;;
13255;SDS011;37913;48.370;10.930;2023-03-01T04:33:56;83.80;;;36.67;;
13255;SDS011;37913;48.370;10.930;2023-03-01T04:36:24;92.33;;;37.97;;
13255;SDS011;37913;48.370;10.930;2023-03-01T04:38:53;87.23;;;36.83;;
13255;SDS011;37913;48.370;10.930;2023-03-01T04:41:21;88.40;;;36.77;;
13255;SDS011;37913;48.370;10.930;2023-03-01T04:43:49;93.30;;;38.93;;
13255;SDS011;37913;48.370;10.930;2023-03-01T04:46:18;90.20;;;36.80;;
13255;SDS011;37913;48.370;10.930;2023-03-01T04:48:46;89.37;;;36.27;;
13255;SDS011;37913;48.370;10.930;2023-03-01T04:51:13;91.13;;;37.73;;
13255;SDS011;37913;48.370;10.930;2023-03-01T04:53:41;87.27;;;36.80;;
13255;SDS011;37913;48.370;10.930;2023-03-01T04:56:09;89.37;;;37.37;;
13255;SDS011;37913;48.370;10.930;2023-03-01T04:58:36;90.40;;;37.87;;
13255;SDS011;37913;48.370;10.930;2023-03-01T05:01:07;96.70;;;39.90;;
13255;SDS011;37913;48.370;10.930;2023-03-01T05:03:41;86.67;;;36.23;;
13255;SDS011;37913;48.370;10.930;2023-03-01T05:06:09;89.40;;;36.50;;
13255;SDS011;37913;48.370;10.930;2023-03-01T05:08:37;78.37;;;35.03;;
13255;SDS011;37913;48.370;10.930;2023-03-01T05:11:04;70.33;;;33.40;;
13255;SDS011;37913;48.370;10.930;2023-03-01T05:13:34;88.77;;;38.43;;
13255;SDS011;37913;48.370;10.930;2023-03-01T05:16:02;93.53;;;39.47;;
13255;SDS011;37913;48.370;10.930;2023-03-01T05:18:31;79.30;;;33.43;;
13255;SDS011;37913;48.370;10.930;2023-03-01T05:21:03;89.50;;;36.50;;
13255;SDS011;37913;48.370;10.930;2023-03-01T05:23:31;82.20;;;35.77;;
13255;SDS011;37913;48.370;10.930;2023-03-01T05:25:59;82.87;;;36.33;;
13255;SDS011;37913;48.370;10.930;2023-03-01T05:28:27;91.03;;;36.53;;
13255;SDS011;37913;48.370;10.930;2023-03-01T05:30:54;86.90;;;36.67;;
13255;SDS011;37913;48.370;10.930;2023-03-01T05:35:59;85.80;;;37.20;;
13255;SDS011;37913;48.370;10.930;2023-03-01T05:38:27;85.43;;;36.20;;
13255;SDS011;37913;48.370;10.930;2023-03-01T05:40:54;82.93;;;36.23;;
13255;SDS011;37913;48.370;10.930;2023-03-01T05:43:21;91.10;;;36.77;;
13255;SDS011;37913;48.370;10.930;2023-03-01T05:45:48;81.83;;;35.20;;
13255;SDS011;37913;48.370;10.930;2023-03-01T05:48:15;78.83;;;37.07;;
13255;SDS011;37913;48.370;10.930;2023-03-01T05:50:44;88.20;;;38.10;;
13255;SDS011;37913;48.370;10.930;2023-03-01T05:53:12;82.07;;;36.13;;
13255;SDS011;37913;48.370;10.930;2023-03-01T05:55:42;83.43;;;35.53;;
13255;SDS011;37913;48.370;10.930;2023-03-01T05:58:12;83.33;;;36.20;;
13255;SDS011;37913;48.370;10.930;2023-03-01T06:00:41;82.17;;;36.50;;
13255;SDS011;37913;48.370;10.930;2023-03-01T06:03:09;67.43;;;32.23;;
13255;SDS011;37913;48.370;10.930;2023-03-01T06:05:37;89.77;;;36.80;;
13255;SDS011;37913;48.370;10.930;2023-03-01T06:08:05;81.60;;;35.57;;
13255;SDS011;37913;48.370;10.930;2023-03-01T06:10:32;73.40;;;33.53;;
13255;SDS011;37913;48.370;10.930;2023-03-01T06:13:00;85.13;;;37.33;;
13255;SDS011;37913;48.370;10.930;2023-03-01T06:15:27;78.63;;;34.20;;
13255;SDS011;37913;48.370;10.930;2023-03-01T06:17:54;81.87;;;35.23;;
13255;SDS011;37913;48.370;10.930;2023-03-01T06:20:23;85.93;;;36.23;;
13255;SDS011;37913;48.370;10.930;2023-03-01T06:22:52;89.93;;;37.70;;
13255;SDS011;37913;48.370;10.930;2023-03-01T06:25:20;77.83;;;34.70;;
13255;SDS011;37913;48.370;10.930;2023-03-01T06:27:48;88.07;;;37.23;;
13255;SDS011;37913;48.370;10.930;2023-03-01T06:30:19;94.73;;;38.73;;
13255;SDS011;37913;48.370;10.930;2023-03-01T06:32:47;94.73;;;39.03;;
13255;SDS011;37913;48.370;10.930;2023-03-01T06:35:16;87.03;;;36.73;;
13255;SDS011;37913;48.370;10.930;2023-03-01T06:37:44;90.27;;;37.87;;
13255;SDS011;37913;48.370;10.930;2023-03-01T06:40:11;94.43;;;37.60;;
13255;SDS011;37913;48.370;10.930;2023-03-01T06:42:40;84.40;;;36.63;;
13255;SDS011;37913;48.370;10.930;2023-03-01T06:45:08;88.30;;;38.07;;
13255;SDS011;37913;48.370;10.930;2023-03-01T06:47:38;86.53;;;37.53;;
13255;SDS011;37913;48.370;10.930;2023-03-01T06:50:05;82.00;;;36.80;;
13255;SDS011;37913;48.370;10.930;2023-03-01T06:52:32;100.90;;;40.23;;
13255;SDS011;37913;48.370;10.930;2023-03-01T06:54:59;131.63;;;44.30;;
13255;SDS011;37913;48.370;10.930;2023-03-01T06:57:27;118.10;;;45.17;;
13255;SDS011;37913;48.370;10.930;2023-03-01T06:59:55;86.87;;;37.17;;
13255;SDS011;37913;48.370;10.930;2023-03-01T07:02:22;86.00;;;36.70;;
13255;SDS011;37913;48.370;10.930;2023-03-01T07:04:51;122.70;;;43.50;;
13255;SDS011;37913;48.370;10.930;2023-03-01T07:07:18;86.43;;;37.77;;
13255;SDS011;37913;48.370;10.930;2023-03-01T07:09:45;91.23;;;38.67;;
13255;SDS011;37913;48.370;10.930;2023-03-01T07:12:12;84.03;;;36.20;;
13255;SDS011;37913;48.370;10.930;2023-03-01T07:14:39;86.53;;;37.03;;
13255;SDS011;37913;48.370;10.930;2023-03-01T07:17:06;84.80;;;36.20;;
13255;SDS011;37913;48.370;10.930;2023-03-01T07:19:33;85.60;;;37.03;;
13255;SDS011;37913;48.370;10.930;2023-03-01T07:22:02;83.87;;;36.60;;
13255;SDS011;37913;48.370;10.930;2023-03-01T07:24:33;83.47;;;36.27;;
13255;SDS011;37913;48.370;10.930;2023-03-01T07:27:00;86.80;;;37.10;;
13255;SDS011;37913;48.370;10.930;2023-03-01T07:29:28;89.47;;;37.67;;
13255;SDS011;37913;48.370;10.930;2023-03-01T07:31:55;82.47;;;35.97;;
13255;SDS011;37913;48.370;10.930;2023-03-01T07:34:24;81.37;;;35.83;;
13255;SDS011;37913;48.370;10.930;2023-03-01T07:36:51;75.43;;;34.97;;
13255;SDS011;37913;48.370;10.930;2023-03-01T07:39:20;82.43;;;36.90;;
13255;SDS011;37913;48.370;10.930;2023-03-01T07:41:48;88.67;;;38.87;;
13255;SDS011;37913;48.370;10.930;2023-03-01T07:44:15;78.47;;;35.33;;
13255;SDS011;37913;48.370;10.930;2023-03-01T07:46:42;83.27;;;36.50;;
13255;SDS011;37913;48.370;10.930;2023-03-01T07:49:10;86.03;;;37.07;;
13255;SDS011;37913;48.370;10.930;2023-03-01T07:51:37;89.97;;;37.93;;
13255;SDS011;37913;48.370;10.930;2023-03-01T07:54:03;83.97;;;36.43;;
13255;SDS011;37913;48.370;10.930;2023-03-01T07:56:32;95.07;;;39.30;;
13255;SDS011;37913;48.370;10.930;2023-03-01T07:58:59;88.93;;;36.70;;
13255;SDS011;37913;48.370;10.930;2023-03-01T08:01:26;76.63;;;35.67;;
13255;SDS011;37913;48.370;10.930;2023-03-01T08:03:53;87.87;;;38.20;;
13255;SDS011;37913;48.370;10.930;2023-03-01T08:06:20;97.13;;;40.27;;
13255;SDS011;37913;48.370;10.930;2023-03-01T08:08:47;88.03;;;37.90;;
13255;SDS011;37913;48.370;10.930;2023-03-01T08:11:14;83.77;;;37.03;;
13255;SDS011;37913;48.370;10.930;2023-03-01T08:13:43;81.10;;;37.73;;
13255;SDS011;37913;48.370;10.930;2023-03-01T08:16:10;94.07;;;38.10;;
13255;SDS011;37913;48.370;10.930;2023-03-01T08:18:38;91.83;;;37.77;;
13255;SDS011;37913;48.370;10.930;2023-03-01T08:21:06;86.37;;;38.30;;
13255;SDS011;37913;48.370;10.930;2023-03-01T08:23:34;82.63;;;36.40;;
13255;SDS011;37913;48.370;10.930;2023-03-01T08:26:05;94.77;;;40.03;;
13255;SDS011;37913;48.370;10.930;2023-03-01T08:28:33;88.30;;;37.87;;
13255;SDS011;37913;48.370;10.930;2023-03-01T08:31:01;85.53;;;38.27;;
13255;SDS011;37913;48.370;10.930;2023-03-01T08:33:28;88.40;;;37.23;;
13255;SDS011;37913;48.370;10.930;2023-03-01T08:36:02;94.63;;;38.90;;
13255;SDS011;37913;48.370;10.930;2023-03-01T08:38:29;84.17;;;37.67;;
13255;SDS011;37913;48.370;10.930;2023-03-01T08:40:58;84.97;;;37.73;;
13255;SDS011;37913;48.370;10.930;2023-03-01T08:43:26;84.27;;;36.73;;
13255;SDS011;37913;48.370;10.930;2023-03-01T08:45:53;88.53;;;39.80;;
13255;SDS011;37913;48.370;10.930;2023-03-01T08:48:21;89.07;;;38.63;;
13255;SDS011;37913;48.370;10.930;2023-03-01T08:50:49;95.90;;;43.70;;
13255;SDS011;37913;48.370;10.930;2023-03-01T08:53:16;80.40;;;38.93;;
13255;SDS011;37913;48.370;10.930;2023-03-01T08:55:44;82.07;;;38.53;;
13255;SDS011;37913;48.370;10.930;2023-03-01T08:58:10;86.00;;;40.27;;
13255;SDS011;37913;48.370;10.930;2023-03-01T09:00:38;89.17;;;39.50;;
13255;SDS011;37913;48.370;10.930;2023-03-01T09:03:05;84.10;;;37.83;;
13255;SDS011;37913;48.370;10.930;2023-03-01T09:05:33;84.50;;;37.63;;
13255;SDS011;37913;48.370;10.930;2023-03-01T09:08:02;100.93;;;42.87;;
13255;SDS011;37913;48.370;10.930;2023-03-01T09:10:28;86.13;;;38.40;;
13255;SDS011;37913;48.370;10.930;2023-03-01T09:12:55;88.00;;;38.13;;
13255;SDS011;37913;48.370;10.930;2023-03-01T09:15:22;95.53;;;41.13;;
13255;SDS011;37913;48.370;10.930;2023-03-01T09:17:49;88.83;;;38.60;;
13255;SDS011;37913;48.370;10.930;2023-03-01T09:20:16;86.67;;;37.30;;
13255;SDS011;37913;48.370;10.930;2023-03-01T09:22:45;91.60;;;39.83;;
13255;SDS011;37913;48.370;10.930;2023-03-01T09:25:12;86.20;;;40.23;;
13255;SDS011;37913;48.370;10.930;2023-03-01T09:27:40;87.33;;;38.43;;
13255;SDS011;37913;48.370;10.930;2023-03-01T09:30:07;88.83;;;38.97;;
13255;SDS011;37913;48.370;10.930;2023-03-01T09:32:36;86.20;;;38.13;;
13255;SDS011;37913;48.370;10.930;2023-03-01T09:35:07;84.63;;;38.30;;
13255;SDS011;37913;48.370;10.930;2023-03-01T09:37:35;89.93;;;40.30;;
13255;SDS011;37913;48.370;10.930;2023-03-01T09:40:05;75.80;;;35.13;;
13255;SDS011;37913;48.370;10.930;2023-03-01T09:42:52;83.90;;;37.40;;
13255;SDS011;37913;48.370;10.930;2023-03-01T09:45:26;93.37;;;39.27;;
13255;SDS011;37913;48.370;10.930;2023-03-01T09:47:56;104.15;;;42.60;;
13255;SDS011;37913;48.370;10.930;2023-03-01T09:50:23;94.03;;;40.75;;
13255;SDS011;37913;48.370;10.930;2023-03-01T09:52:54;100.20;;;42.83;;
13255;SDS011;37913;48.370;10.930;2023-03-01T09:55:31;103.05;;;44.97;;
13255;SDS011;37913;48.370;10.930;2023-03-01T09:58:05;95.70;;;42.78;;
13255;SDS011;37913;48.370;10.930;2023-03-01T10:00:47;97.05;;;44.88;;
13255;SDS011;37913;48.370;10.930;2023-03-01T10:03:16;109.00;;;47.60;;
13255;SDS011;37913;48.370;10.930;2023-03-01T10:05:51;115.00;;;49.65;;
13255;SDS011;37913;48.370;10.930;2023-03-01T10:08:28;92.30;;;46.13;;
13255;SDS011;37913;48.370;10.930;2023-03-01T10:11:02;108.20;;;47.80;;
13255;SDS011;37913;48.370;10.930;2023-03-01T10:13:33;102.75;;;45.47;;
13255;SDS011;37913;48.370;10.930;2023-03-01T10:16:11;100.40;;;46.63;;
13255;SDS011;37913;48.370;10.930;2023-03-01T10:18:41;96.75;;;44.72;;
13255;SDS011;37913;48.370;10.930;2023-03-01T10:21:13;99.18;;;46.22;;
13255;SDS011;37913;48.370;10.930;2023-03-01T10:23:42;98.38;;;44.88;;
13255;SDS011;37913;48.370;10.930;2023-03-01T10:26:15;111.22;;;49.15;;
13255;SDS011;37913;48.370;10.930;2023-03-01T10:28:54;108.18;;;47.67;;
13255;SDS011;37913;48.370;10.930;2023-03-01T10:31:35;98.88;;;46.72;;
13255;SDS011;37913;48.370;10.930;2023-03-01T10:34:08;113.75;;;50.33;;
13255;SDS011;37913;48.370;10.930;2023-03-01T10:36:40;105.50;;;48.05;;
13255;SDS011;37913;48.370;10.930;2023-03-01T10:39:13;111.55;;;48.53;;
13255;SDS011;37913;48.370;10.930;2023-03-01T10:44:39;93.57;;;46.28;;
13255;SDS011;37913;48.370;10.930;2023-03-01T10:47:13;104.45;;;49.33;;
13255;SDS011;37913;48.370;10.930;2023-03-01T10:49:51;113.28;;;50.58;;
13255;SDS011;37913;48.370;10.930;2023-03-01T10:52:20;89.55;;;46.10;;
13255;SDS011;37913;48.370;10.930;2023-03-01T10:54:54;134.20;;;54.83;;
13255;SDS011;37913;48.370;10.930;2023-03-01T10:57:31;107.88;;;48.25;;
13255;SDS011;37913;48.370;10.930;2023-03-01T11:00:17;94.88;;;46.13;;
13255;SDS011;37913;48.370;10.930;2023-03-01T11:02:48;99.13;;;47.50;;
13255;SDS011;37913;48.370;10.930;2023-03-01T11:05:20;99.10;;;46.80;;
13255;SDS011;37913;48.370;10.930;2023-03-01T11:07:51;103.18;;;48.50;;
13255;SDS011;37913;48.370;10.930;2023-03-01T11:10:20;103.28;;;48.92;;
13255;SDS011;37913;48.370;10.930;2023-03-01T11:12:52;102.63;;;48.03;;
13255;SDS011;37913;48.370;10.930;2023-03-01T11:15:24;102.78;;;48.80;;
13255;SDS011;37913;48.370;10.930;2023-03-01T11:17:53;103.53;;;49.28;;
13255;SDS011;37913;48.370;10.930;2023-03-01T11:20:23;102.55;;;49.83;;
13255;SDS011;37913;48.370;10.930;2023-03-01T11:22:53;99.32;;;48.38;;
13255;SDS011;37913;48.370;10.930;2023-03-01T11:25:24;107.93;;;51.17;;
13255;SDS011;37913;48.370;10.930;2023-03-01T11:27:54;103.63;;;50.65;;
13255;SDS011;37913;48.370;10.930;2023-03-01T11:30:23;107.63;;;49.78;;
13255;SDS011;37913;48.370;10.930;2023-03-01T11:32:57;109.03;;;49.63;;
13255;SDS011;37913;48.370;10.930;2023-03-01T11:35:32;98.03;;;46.47;;
13255;SDS011;37913;48.370;10.930;2023-03-01T11:38:05;115.38;;;51.92;;
13255;SDS011;37913;48.370;10.930;2023-03-01T11:40:41;97.82;;;48.58;;
13255;SDS011;37913;48.370;10.930;2023-03-01T11:43:17;106.15;;;49.38;;
13255;SDS011;37913;48.370;10.930;2023-03-01T11:45:54;90.03;;;47.88;;
13255;SDS011;37913;48.370;10.930;2023-03-01T11:48:49;118.07;;;53.45;;
13255;SDS011;37913;48.370;10.930;2023-03-01T11:51:28;110.68;;;51.95;;
13255;SDS011;37913;48.370;10.930;2023-03-01T11:54:12;106.78;;;51.17;;
13255;SDS011;37913;48.370;10.930;2023-03-01T11:56:47;116.55;;;54.45;;
13255;SDS011;37913;48.370;10.930;2023-03-01T12:02:27;107.47;;;52.38;;
13255;SDS011;37913;48.370;10.930;2023-03-01T12:05:24;117.60;;;54.58;;
13255;SDS011;37913;48.370;10.930;2023-03-01T12:08:10;111.93;;;54.20;;
13255;SDS011;37913;48.370;10.930;2023-03-01T12:10:44;111.78;;;53.70;;
13255;SDS011;37913;48.370;10.930;2023-03-01T12:13:26;95.82;;;51.20;;
13255;SDS011;37913;48.370;10.930;2023-03-01T12:22:13;99.63;;;49.67;;
13255;SDS011;37913;48.370;10.930;2023-03-01T12:25:03;117.55;;;52.85;;
13255;SDS011;37913;48.370;10.930;2023-03-01T12:30:48;104.10;;;48.83;;
13255;SDS011;37913;48.370;10.930;2023-03-01T12:33:30;107.05;;;54.03;;
13255;SDS011;37913;48.370;10.930;2023-03-01T12:36:16;99.32;;;48.47;;
13255;SDS011;37913;48.370;10.930;2023-03-01T12:39:07;107.90;;;52.42;;
13255;SDS011;37913;48.370;10.930;2023-03-01T12:41:48;107.22;;;52.53;;
13255;SDS011;37913;48.370;10.930;2023-03-01T12:47:18;102.80;;;52.00;;
13255;SDS011;37913;48.370;10.930;2023-03-01T12:49:55;100.28;;;52.03;;
13255;SDS011;37913;48.370;10.930;2023-03-01T12:52:26;110.72;;;55.05;;
13255;SDS011;37913;48.370;10.930;2023-03-01T12:54:59;146.57;;;73.57;;
13255;SDS011;37913;48.370;10.930;2023-03-01T12:57:29;110.15;;;54.92;;
13255;SDS011;37913;48.370;10.930;2023-03-01T13:00:08;110.38;;;58.75;;
13255;SDS011;37913;48.370;10.930;2023-03-01T13:02:47;109.95;;;56.85;;
13255;SDS011;37913;48.370;10.930;2023-03-01T13:05:31;112.93;;;55.67;;
13255;SDS011;37913;48.370;10.930;2023-03-01T13:08:08;112.65;;;55.38;;
13255;SDS011;37913;48.370;10.930;2023-03-01T13:10:43;101.38;;;52.33;;
13255;SDS011;37913;48.370;10.930;2023-03-01T13:13:19;103.80;;;52.83;;
13255;SDS011;37913;48.370;10.930;2023-03-01T13:15:47;104.40;;;52.13;;
13255;SDS011;37913;48.370;10.930;2023-03-01T13:18:31;102.10;;;50.67;;
13255;SDS011;37913;48.370;10.930;2023-03-01T13:21:04;101.13;;;48.65;;
13255;SDS011;37913;48.370;10.930;2023-03-01T13:23:32;97.28;;;47.33;;
13255;SDS011;37913;48.370;10.930;2023-03-01T13:26:02;100.95;;;48.40;;
13255;SDS011;37913;48.370;10.930;2023-03-01T13:28:38;104.80;;;48.63;;
13255;SDS011;37913;48.370;10.930;2023-03-01T13:34:41;110.30;;;49.45;;
13255;SDS011;37913;48.370;10.930;2023-03-01T13:37:18;100.78;;;46.03;;
13255;SDS011;37913;48.370;10.930;2023-03-01T13:39:47;107.90;;;47.95;;
13255;SDS011;37913;48.370;10.930;2023-03-01T13:42:34;111.35;;;48.95;;
13255;SDS011;37913;48.370;10.930;2023-03-01T13:45:16;110.82;;;49.20;;
13255;SDS011;37913;48.370;10.930;2023-03-01T13:47:54;99.10;;;46.75;;
13255;SDS011;37913;48.370;10.930;2023-03-01T13:50:24;99.05;;;49.40;;
13255;SDS011;37913;48.370;10.930;2023-03-01T13:52:56;106.45;;;49.25;;
13255;SDS011;37913;48.370;10.930;2023-03-01T13:55:26;106.53;;;50.00;;
13255;SDS011;37913;48.370;10.930;2023-03-01T13:58:01;100.57;;;49.65;;
13255;SDS011;37913;48.370;10.930;2023-03-01T14:00:32;123.55;;;55.05;;
13255;SDS011;37913;48.370;10.930;2023-03-01T14:03:08;107.05;;;50.95;;
13255;SDS011;37913;48.370;10.930;2023-03-01T14:05:38;129.45;;;53.47;;
13255;SDS011;37913;48.370;10.930;2023-03-01T14:08:19;96.65;;;47.08;;
13255;SDS011;37913;48.370;10.930;2023-03-01T14:10:57;110.22;;;56.35;;
13255;SDS011;37913;48.370;10.930;2023-03-01T14:14:00;101.90;;;56.45;;
13255;SDS011;37913;48.370;10.930;2023-03-01T14:16:38;108.88;;;58.45;;
13255;SDS011;37913;48.370;10.930;2023-03-01T14:19:15;98.47;;;52.95;;
13255;SDS011;37913;48.370;10.930;2023-03-01T14:21:45;101.57;;;57.03;;
13255;SDS011;37913;48.370;10.930;2023-03-01T14:24:20;100.50;;;50.45;;
13255;SDS011;37913;48.370;10.930;2023-03-01T14:26:48;120.05;;;57.45;;
13255;SDS011;37913;48.370;10.930;2023-03-01T14:32:12;93.00;;;54.65;;
13255;SDS011;37913;48.370;10.930;2023-03-01T14:34:45;113.47;;;54.08;;
13255;SDS011;37913;48.370;10.930;2023-03-01T14:37:20;103.13;;;56.03;;
13255;SDS011;37913;48.370;10.930;2023-03-01T14:39:50;101.38;;;55.70;;
13255;SDS011;37913;48.370;10.930;2023-03-01T14:42:18;107.28;;;54.78;;
13255;SDS011;37913;48.370;10.930;2023-03-01T14:44:47;122.88;;;50.58;;
13255;SDS011;37913;48.370;10.930;2023-03-01T14:47:23;103.20;;;47.63;;
13255;SDS011;37913;48.370;10.930;2023-03-01T14:49:56;99.95;;;49.63;;
13255;SDS011;37913;48.370;10.930;2023-03-01T14:52:27;106.10;;;50.03;;